Time;durP1;ratioP1;P1;durP2;ratioP2;P2;SDS_P1;SDS_P2;PMS_P1;PMS_P2;Temp;Humidity;BMP_temperature;BMP_pressure;BME280_temperature;BME280_humidity;BME280_pressure;Samples;Min_cycle;Max_cycle;Signal;HPM_P1;HPM_P2
2021/11/13 00:00:33;;;;;;;20.73;12.45;;;5.50;81.30;;;;;;5137613;27;20443;-73
2021/11/13 00:02:59;;;;;;;20.98;12.02;;;5.40;80.70;;;;;;5137526;27;20022;-73
2021/11/13 00:05:25;;;;;;;20.30;11.80;;;5.40;80.10;;;;;;5137349;27;20088;-73
2021/11/13 00:07:51;;;;;;;22.88;11.05;;;5.50;79.60;;;;;;5137419;27;20026;-72
2021/11/13 00:10:18;;;;;;;20.38;11.75;;;5.50;78.90;;;;;;5137400;27;20015;-73
2021/11/13 00:12:44;;;;;;;20.55;11.02;;;5.40;78.50;;;;;;5137303;27;20015;-73
2021/11/13 00:15:10;;;;;;;19.05;10.52;;;5.40;77.90;;;;;;5137217;27;20106;-73
2021/11/13 00:17:37;;;;;;;18.27;10.82;;;5.40;77.60;;;;;;5137159;27;20019;-73
2021/11/13 00:20:04;;;;;;;18.85;10.48;;;5.30;77.40;;;;;;5137019;27;20539;-73
2021/11/13 00:22:30;;;;;;;20.45;11.13;;;5.40;77.00;;;;;;5136918;27;20030;-74
2021/11/13 00:24:56;;;;;;;19.73;10.20;;;5.40;76.60;;;;;;5136848;27;20074;-74
2021/11/13 00:27:22;;;;;;;16.73;10.77;;;5.40;76.20;;;;;;5136835;27;20105;-74
2021/11/13 00:29:48;;;;;;;16.13;10.25;;;5.30;76.50;;;;;;5136891;27;20098;-74
2021/11/13 00:32:13;;;;;;;19.75;10.98;;;5.40;76.70;;;;;;5136652;27;20055;-74
2021/11/13 00:34:39;;;;;;;18.52;10.82;;;5.30;76.90;;;;;;5136796;27;20015;-73
2021/11/13 00:37:05;;;;;;;17.08;9.82;;;5.40;77.00;;;;;;5135399;27;20027;-74
2021/11/13 00:39:31;;;;;;;19.30;10.68;;;5.30;77.30;;;;;;5136691;27;20031;-74
2021/11/13 00:41:57;;;;;;;15.88;8.60;;;5.30;77.00;;;;;;5136680;27;20470;-74
2021/11/13 00:44:23;;;;;;;13.18;8.32;;;5.30;75.90;;;;;;5136565;27;20027;-74
2021/11/13 00:46:49;;;;;;;14.65;8.52;;;5.40;74.80;;;;;;5136625;27;20181;-74
2021/11/13 00:49:16;;;;;;;13.90;8.02;;;5.40;74.60;;;;;;5136577;27;20452;-73
2021/11/13 00:51:42;;;;;;;15.23;7.72;;;5.50;73.80;;;;;;5136446;27;20379;-73
2021/11/13 00:54:07;;;;;;;11.00;7.78;;;5.40;73.20;;;;;;5136460;27;20026;-73
2021/11/13 00:56:33;;;;;;;15.35;8.07;;;5.40;73.40;;;;;;5136315;27;20528;-72
2021/11/13 00:58:59;;;;;;;14.27;8.23;;;5.40;72.70;;;;;;5136347;27;20035;-73
2021/11/13 01:01:25;;;;;;;16.98;8.93;;;5.30;72.40;;;;;;5136172;27;20083;-72
2021/11/13 01:03:51;;;;;;;16.20;8.57;;;5.30;73.00;;;;;;5136243;27;20023;-72
2021/11/13 01:06:17;;;;;;;18.83;9.05;;;5.30;73.20;;;;;;5135617;27;20035;-72
2021/11/13 01:08:46;;;;;;;17.40;9.55;;;5.30;73.80;;;;;;5135029;27;20024;-72
2021/11/13 01:11:13;;;;;;;16.23;9.30;;;5.30;74.40;;;;;;5136130;27;20015;-72
2021/11/13 01:13:38;;;;;;;16.83;9.20;;;5.30;74.50;;;;;;5135913;27;20015;-73
2021/11/13 01:16:04;;;;;;;15.73;8.52;;;5.30;74.00;;;;;;5135983;27;20083;-74
2021/11/13 01:18:30;;;;;;;14.77;8.25;;;5.20;73.30;;;;;;5135904;27;20023;-74
2021/11/13 01:20:55;;;;;;;15.15;9.18;;;5.20;73.40;;;;;;5134602;27;20030;-74
2021/11/13 01:23:21;;;;;;;18.23;9.30;;;5.30;73.30;;;;;;5135779;27;20027;-74
2021/11/13 01:25:47;;;;;;;17.08;8.77;;;5.20;72.80;;;;;;5135766;27;20038;-74
2021/11/13 01:28:13;;;;;;;12.95;8.00;;;5.20;72.40;;;;;;5135824;27;20023;-74
2021/11/13 01:30:39;;;;;;;13.18;8.13;;;5.20;71.80;;;;;;5135690;27;20073;-74
2021/11/13 01:33:05;;;;;;;13.55;8.38;;;5.30;71.60;;;;;;5135522;27;20527;-72
2021/11/13 01:35:30;;;;;;;14.23;7.90;;;5.20;70.70;;;;;;5135478;27;20026;-74
2021/11/13 01:37:56;;;;;;;17.10;8.90;;;5.20;70.40;;;;;;5135509;27;20468;-74
2021/11/13 01:40:25;;;;;;;15.57;8.68;;;5.30;70.10;;;;;;5135116;27;20483;-74
2021/11/13 01:42:55;;;;;;;15.65;8.57;;;5.30;69.90;;;;;;5135513;27;20057;-73
2021/11/13 01:45:21;;;;;;;13.65;8.07;;;5.40;69.00;;;;;;5135312;27;20479;-73
2021/11/13 01:47:47;;;;;;;12.63;7.25;;;5.30;68.70;;;;;;5135365;27;20034;-74
2021/11/13 01:50:19;;;;;;;13.15;7.25;;;5.40;67.60;;;;;;5134148;27;20117;-73
2021/11/13 01:52:46;;;;;;;15.02;7.00;;;5.40;67.10;;;;;;5135384;27;20019;-74
2021/11/13 01:55:14;;;;;;;11.18;6.57;;;5.40;66.50;;;;;;5135267;27;20019;-73
2021/11/13 01:58:01;;;;;;;8.90;5.00;;;5.40;66.10;;;;;;5135079;27;20053;-73
2021/11/13 02:00:31;;;;;;;9.13;4.50;;;5.40;65.00;;;;;;5135191;27;20102;-74
2021/11/13 02:02:57;;;;;;;8.68;5.20;;;5.50;64.60;;;;;;5135206;27;20026;-74
2021/11/13 02:05:23;;;;;;;8.38;4.80;;;5.50;63.60;;;;;;5134824;27;20027;-74
2021/11/13 02:07:49;;;;;;;7.75;5.05;;;5.50;63.50;;;;;;5134835;27;20023;-74
2021/11/13 02:10:17;;;;;;;9.48;4.22;;;5.50;63.30;;;;;;5134900;27;20023;-73
2021/11/13 02:12:43;;;;;;;6.30;4.40;;;5.40;63.10;;;;;;5134913;27;20023;-73
2021/11/13 02:15:09;;;;;;;9.07;4.93;;;5.30;64.20;;;;;;5134852;27;20532;-73
2021/11/13 02:17:35;;;;;;;9.88;4.93;;;5.30;64.90;;;;;;5134665;27;20049;-73
2021/11/13 02:20:34;;;;;;;8.10;5.00;;;5.40;64.70;;;;;;5134519;27;20442;-73
2021/11/13 02:23:10;;;;;;;7.20;5.07;;;5.30;64.70;;;;;;5100455;27;20099;-73
2021/11/13 02:25:37;;;;;;;7.07;4.72;;;5.20;65.10;;;;;;5134667;27;20490;-74
2021/11/13 02:28:05;;;;;;;6.65;4.35;;;5.20;65.30;;;;;;5134626;27;20098;-74
2021/11/13 02:30:31;;;;;;;8.15;4.60;;;5.20;65.00;;;;;;5134593;27;20067;-74
2021/11/13 02:32:56;;;;;;;9.40;4.97;;;5.20;65.50;;;;;;5134392;27;20051;-74
2021/11/13 02:35:26;;;;;;;9.43;4.72;;;5.10;66.50;;;;;;5134424;27;20023;-74
2021/11/13 02:37:52;;;;;;;9.18;4.93;;;5.00;67.20;;;;;;5134559;27;20454;-74
2021/11/13 02:40:18;;;;;;;8.82;4.50;;;5.00;67.80;;;;;;5134485;27;20027;-74
2021/11/13 02:42:45;;;;;;;12.23;5.35;;;4.90;68.20;;;;;;5134181;27;20019;-74
2021/11/13 02:45:12;;;;;;;9.73;5.78;;;4.90;68.80;;;;;;5134282;27;20114;-74
2021/11/13 02:47:43;;;;;;;10.35;5.30;;;4.90;69.40;;;;;;5134245;27;20054;-74
2021/11/13 02:50:11;;;;;;;8.75;4.72;;;4.90;69.60;;;;;;5132960;27;20042;-72
2021/11/13 02:52:45;;;;;;;10.35;5.32;;;4.90;70.00;;;;;;5134051;27;20015;-72
2021/11/13 02:55:11;;;;;;;6.78;4.38;;;4.90;69.90;;;;;;5134267;27;20027;-72
2021/11/13 02:57:39;;;;;;;9.27;5.50;;;4.90;69.70;;;;;;5134090;27;20019;-73
2021/11/13 03:00:05;;;;;;;10.30;5.32;;;4.90;69.70;;;;;;5134155;27;20023;-73
2021/11/13 03:02:32;;;;;;;9.10;5.45;;;4.90;69.60;;;;;;5132635;27;20064;-72
2021/11/13 03:04:58;;;;;;;8.32;5.53;;;4.80;69.50;;;;;;5133998;27;20072;-73
2021/11/13 03:07:23;;;;;;;10.40;5.38;;;4.80;69.70;;;;;;5133965;27;20021;-73
2021/11/13 03:09:49;;;;;;;9.75;5.60;;;4.70;70.10;;;;;;5134130;27;20037;-74
2021/11/13 03:12:14;;;;;;;10.13;5.80;;;4.50;70.50;;;;;;5134074;27;20047;-73
2021/11/13 03:14:40;;;;;;;8.27;5.43;;;4.50;70.70;;;;;;5134140;28;20027;-73
2021/11/13 03:17:11;;;;;;;9.30;4.75;;;4.50;70.70;;;;;;5135074;27;20030;-73
2021/11/13 03:19:36;;;;;;;12.35;6.70;;;4.50;70.90;;;;;;5135754;28;20015;-73
2021/11/13 03:22:02;;;;;;;12.52;6.28;;;4.60;70.60;;;;;;5134103;28;20030;-73
2021/11/13 03:24:29;;;;;;;12.30;6.30;;;4.60;70.70;;;;;;5132725;28;20421;-74
2021/11/13 03:26:56;;;;;;;18.80;9.00;;;4.50;70.70;;;;;;5136248;28;20360;-72
2021/11/13 03:29:27;;;;;;;15.88;8.25;;;4.50;70.80;;;;;;5142150;27;20023;-72
2021/11/13 03:31:55;;;;;;;16.13;7.80;;;4.50;71.10;;;;;;5140191;27;20092;-73
2021/11/13 03:34:20;;;;;;;20.75;8.27;;;4.40;70.80;;;;;;5138374;27;20015;-73
2021/11/13 03:36:46;;;;;;;13.75;7.18;;;4.40;70.80;;;;;;5138077;27;20027;-73
2021/11/13 03:39:11;;;;;;;12.88;7.00;;;4.40;70.80;;;;;;5138080;27;20112;-72
2021/11/13 03:41:38;;;;;;;15.18;7.82;;;4.30;70.90;;;;;;5137846;27;20080;-73
2021/11/13 03:44:04;;;;;;;16.13;7.38;;;4.30;71.10;;;;;;5137749;27;20027;-73
2021/11/13 03:46:29;;;;;;;11.70;6.43;;;4.30;71.20;;;;;;5137717;27;20113;-72
2021/11/13 03:48:55;;;;;;;10.40;6.68;;;4.30;71.30;;;;;;5137868;27;20079;-73
2021/11/13 03:51:21;;;;;;;11.20;6.32;;;4.20;70.90;;;;;;5137666;27;20019;-73
2021/11/13 03:53:48;;;;;;;8.30;5.53;;;4.10;71.10;;;;;;5137715;27;20055;-73
2021/11/13 03:56:14;;;;;;;15.55;6.03;;;4.00;70.90;;;;;;5137549;27;20463;-74
2021/11/13 03:58:40;;;;;;;8.68;5.30;;;4.00;70.70;;;;;;5137668;27;20042;-73
2021/11/13 04:01:05;;;;;;;7.18;4.82;;;4.00;70.40;;;;;;5137556;27;20138;-73
2021/11/13 04:03:31;;;;;;;8.52;5.80;;;4.00;70.40;;;;;;5137255;27;20027;-72
2021/11/13 04:05:57;;;;;;;8.60;5.10;;;4.10;70.40;;;;;;5137396;27;20079;-72
2021/11/13 04:08:23;;;;;;;9.07;5.60;;;4.10;70.60;;;;;;5137355;27;20467;-73
2021/11/13 04:10:48;;;;;;;9.43;5.55;;;4.10;70.60;;;;;;5137357;27;20027;-72
2021/11/13 04:13:14;;;;;;;6.95;4.78;;;4.10;70.30;;;;;;5137366;27;20019;-72
2021/11/13 04:15:40;;;;;;;7.20;4.63;;;4.10;69.80;;;;;;5137242;27;20576;-73
2021/11/13 04:18:06;;;;;;;7.60;4.65;;;4.20;69.70;;;;;;5137225;27;20015;-72
2021/11/13 04:20:33;;;;;;;9.07;4.75;;;4.20;69.80;;;;;;5135722;27;20111;-73
2021/11/13 04:22:58;;;;;;;10.98;5.68;;;4.20;69.40;;;;;;5136970;27;20027;-73
2021/11/13 04:25:24;;;;;;;7.80;5.10;;;4.20;69.50;;;;;;5136858;27;20035;-72
2021/11/13 04:27:50;;;;;;;7.68;4.45;;;4.20;69.40;;;;;;5137032;27;20155;-72
2021/11/13 04:30:16;;;;;;;5.95;3.45;;;4.10;69.40;;;;;;5136815;27;20110;-73
2021/11/13 04:32:44;;;;;;;6.03;3.92;;;4.20;69.10;;;;;;5136828;27;20487;-73
2021/11/13 04:37:56;;;;;;;;;;;4.30;68.10;;;;;;5137340;27;20051;-73
2021/11/13 04:40:30;;;;;;;10.05;4.22;;;4.40;66.90;;;;;;5136709;27;19915;-72
2021/11/13 04:42:56;;;;;;;12.43;5.50;;;4.40;66.70;;;;;;5135251;27;20080;-73
2021/11/13 04:45:22;;;;;;;11.82;5.25;;;4.50;67.10;;;;;;5136435;27;20096;-72
2021/11/13 04:47:48;;;;;;;8.73;4.45;;;4.50;67.10;;;;;;5136537;27;20408;-73
2021/11/13 04:50:17;;;;;;;8.95;3.90;;;4.60;66.80;;;;;;5136542;27;20031;-73
2021/11/13 04:52:44;;;;;;;6.85;3.63;;;4.60;66.80;;;;;;5136567;27;20429;-72
2021/11/13 04:55:10;;;;;;;5.32;3.40;;;4.70;67.40;;;;;;5134927;27;20027;-72
2021/11/13 04:57:36;;;;;;;11.70;6.15;;;4.70;67.40;;;;;;5136380;27;20135;-72
2021/11/13 05:00:05;;;;;;;12.02;5.93;;;4.70;67.40;;;;;;5136274;27;20019;-72
2021/11/13 05:02:31;;;;;;;4.57;3.33;;;4.70;66.80;;;;;;5136160;27;20024;-72
2021/11/13 05:04:56;;;;;;;4.60;2.95;;;4.70;66.30;;;;;;5136365;27;20035;-72
2021/11/13 05:07:23;;;;;;;4.50;3.15;;;4.80;66.10;;;;;;5136122;27;20030;-73
2021/11/13 05:09:50;;;;;;;5.10;2.83;;;4.90;66.00;;;;;;5136225;27;20037;-73
2021/11/13 05:12:16;;;;;;;8.98;3.20;;;4.90;66.70;;;;;;5134806;27;20091;-73
2021/11/13 05:14:41;;;;;;;7.93;4.20;;;5.00;65.90;;;;;;5136043;27;20027;-73
2021/11/13 05:17:07;;;;;;;5.35;3.05;;;5.00;66.20;;;;;;5136229;27;20027;-72
2021/11/13 05:19:33;;;;;;;9.77;5.43;;;5.10;66.10;;;;;;5135944;27;20015;-72
2021/11/13 05:21:58;;;;;;;15.20;7.18;;;5.10;66.20;;;;;;5136153;27;20019;-73
2021/11/13 05:24:24;;;;;;;15.27;8.55;;;5.20;66.40;;;;;;5135855;27;20425;-72
2021/11/13 05:26:49;;;;;;;14.23;7.45;;;5.20;66.50;;;;;;5135692;27;20027;-72
2021/11/13 05:29:15;;;;;;;8.75;4.82;;;5.20;66.40;;;;;;5135331;27;20015;-73
2021/11/13 05:31:40;;;;;;;7.03;4.78;;;5.20;65.80;;;;;;5135590;27;20074;-72
2021/11/13 05:34:06;;;;;;;9.90;5.35;;;5.30;66.20;;;;;;5135706;27;20027;-72
2021/11/13 05:36:32;;;;;;;7.68;4.93;;;5.20;66.40;;;;;;5135590;27;20398;-74
2021/11/13 05:38:57;;;;;;;8.55;5.13;;;5.20;66.40;;;;;;5135692;27;20062;-74
2021/11/13 05:41:23;;;;;;;7.65;4.15;;;5.30;66.60;;;;;;5135459;27;20055;-72
2021/11/13 05:43:49;;;;;;;4.95;3.20;;;5.30;66.70;;;;;;5135624;27;20020;-74
2021/11/13 05:46:15;;;;;;;3.92;2.50;;;5.30;66.70;;;;;;5133989;27;20055;-73
2021/11/13 05:48:42;;;;;;;5.25;2.75;;;5.30;66.80;;;;;;5135482;27;20112;-76
2021/11/13 05:51:07;;;;;;;4.38;2.80;;;5.30;67.00;;;;;;5135611;27;20027;-74
2021/11/13 05:53:33;;;;;;;6.85;2.97;;;5.40;66.80;;;;;;5134654;27;20102;-74
2021/11/13 05:55:59;;;;;;;5.28;3.25;;;5.50;66.80;;;;;;5135265;27;20023;-74
2021/11/13 05:58:24;;;;;;;5.90;3.78;;;5.50;67.00;;;;;;5135175;27;20507;-74
2021/11/13 06:00:50;;;;;;;5.47;3.30;;;5.50;67.40;;;;;;5135190;27;20015;-74
2021/11/13 06:03:16;;;;;;;6.28;3.50;;;5.60;67.60;;;;;;5133806;27;20023;-74
2021/11/13 06:05:43;;;;;;;5.75;3.30;;;5.60;67.60;;;;;;5135022;27;20031;-73
2021/11/13 06:08:09;;;;;;;4.97;3.00;;;5.70;67.60;;;;;;5135113;27;20420;-75
2021/11/13 06:10:34;;;;;;;4.78;3.00;;;5.70;67.40;;;;;;5134887;27;20027;-74
2021/11/13 06:13:00;;;;;;;7.13;3.78;;;5.80;67.40;;;;;;5134920;27;20386;-73
2021/11/13 06:15:26;;;;;;;5.43;3.28;;;5.80;67.30;;;;;;5134824;27;20563;-73
2021/11/13 06:17:51;;;;;;;6.78;4.40;;;5.90;67.40;;;;;;5134816;27;20030;-73
2021/11/13 06:20:17;;;;;;;9.35;4.70;;;5.90;68.30;;;;;;5134808;27;20023;-74
2021/11/13 06:22:43;;;;;;;8.00;4.65;;;5.90;67.50;;;;;;5136559;27;20058;-73
2021/11/13 06:25:10;;;;;;;6.43;4.75;;;5.90;67.70;;;;;;5134713;27;20031;-73
2021/11/13 06:27:37;;;;;;;9.52;5.03;;;5.90;67.60;;;;;;5140888;27;20031;-73
2021/11/13 06:30:04;;;;;;;9.80;5.43;;;5.90;67.70;;;;;;5134704;27;20030;-73
2021/11/13 06:32:30;;;;;;;8.10;4.97;;;5.90;68.10;;;;;;5137463;27;20058;-73
2021/11/13 06:34:58;;;;;;;8.20;4.88;;;5.90;68.20;;;;;;5134701;27;20019;-73
2021/11/13 06:37:24;;;;;;;8.32;4.80;;;5.90;68.70;;;;;;5134433;27;20027;-73
2021/11/13 06:39:50;;;;;;;5.53;3.60;;;5.90;69.10;;;;;;5134351;27;20094;-74
2021/11/13 06:42:16;;;;;;;6.25;3.78;;;5.90;69.50;;;;;;5134492;27;20019;-73
2021/11/13 06:44:41;;;;;;;6.47;3.95;;;5.90;69.50;;;;;;5134241;27;20023;-73
2021/11/13 06:47:07;;;;;;;7.35;4.05;;;5.80;69.90;;;;;;5134410;27;20106;-73
2021/11/13 06:49:32;;;;;;;8.05;5.03;;;5.80;70.20;;;;;;5134164;27;20031;-73
2021/11/13 06:51:58;;;;;;;8.50;4.85;;;5.80;70.80;;;;;;5134199;27;20054;-73
2021/11/13 06:54:24;;;;;;;9.32;4.55;;;5.80;70.90;;;;;;5132844;27;20023;-74
2021/11/13 06:56:49;;;;;;;7.55;4.90;;;5.70;71.30;;;;;;5134039;27;20034;-73
2021/11/13 06:59:15;;;;;;;6.70;4.72;;;5.70;71.80;;;;;;5134076;27;20030;-73
2021/11/13 07:01:41;;;;;;;7.43;4.50;;;5.70;71.80;;;;;;5133937;27;20019;-74
2021/11/13 07:04:07;;;;;;;8.80;4.88;;;5.70;72.00;;;;;;5133990;27;20015;-73
2021/11/13 07:06:33;;;;;;;9.60;5.32;;;5.70;72.20;;;;;;5133201;27;20035;-73
2021/11/13 07:08:58;;;;;;;8.10;4.95;;;5.80;72.40;;;;;;5134048;27;20102;-73
2021/11/13 07:11:24;;;;;;;11.80;6.63;;;5.80;72.40;;;;;;5132648;27;20020;-77
2021/11/13 07:13:49;;;;;;;28.52;12.73;;;5.70;71.70;;;;;;5133802;27;20107;-75
2021/11/13 07:16:15;;;;;;;32.50;16.00;;;5.70;71.50;;;;;;5134193;27;20023;-74
2021/11/13 07:18:41;;;;;;;23.13;11.35;;;5.80;71.20;;;;;;5134135;28;20025;-73
2021/11/13 07:21:07;;;;;;;12.73;8.05;;;5.70;71.00;;;;;;5133890;28;20023;-74
2021/11/13 07:23:34;;;;;;;11.57;7.25;;;5.70;70.90;;;;;;5132342;28;20051;-76
2021/11/13 07:26:02;;;;;;;7.40;5.20;;;5.80;71.10;;;;;;5133603;28;20063;-75
2021/11/13 07:28:36;;;;;;;9.40;5.30;;;5.80;70.90;;;;;;5133802;28;20062;-76
2021/11/13 07:31:03;;;;;;;8.13;5.50;;;5.90;71.00;;;;;;5133518;28;20078;-77
2021/11/13 07:33:28;;;;;;;9.98;6.53;;;5.90;70.70;;;;;;5133490;28;20027;-77
2021/11/13 07:35:54;;;;;;;12.38;6.63;;;6.00;70.60;;;;;;5133809;28;20435;-75
2021/11/13 07:38:20;;;;;;;10.45;6.38;;;6.00;70.50;;;;;;5133541;28;20019;-72
2021/11/13 07:40:46;;;;;;;8.57;5.70;;;6.10;70.20;;;;;;5133697;28;20097;-74
2021/11/13 07:43:12;;;;;;;10.45;5.95;;;6.10;69.90;;;;;;5133457;28;20023;-74
2021/11/13 07:45:38;;;;;;;9.77;5.43;;;6.20;69.40;;;;;;5133491;28;20486;-73
2021/11/13 07:48:07;;;;;;;8.40;5.05;;;6.40;69.30;;;;;;5133515;28;20465;-74
2021/11/13 07:50:35;;;;;;;11.05;5.70;;;6.50;69.20;;;;;;5133316;28;20023;-73
2021/11/13 07:53:05;;;;;;;10.52;5.38;;;6.60;68.90;;;;;;5133313;28;20041;-74
2021/11/13 07:55:30;;;;;;;12.73;6.25;;;6.60;68.40;;;;;;5133358;27;20410;-73
2021/11/13 07:57:56;;;;;;;10.07;6.00;;;6.80;67.00;;;;;;5133390;28;20111;-74
2021/11/13 08:00:22;;;;;;;11.13;6.15;;;6.90;66.40;;;;;;5133112;28;20023;-75
2021/11/13 08:02:48;;;;;;;8.20;5.60;;;7.00;65.90;;;;;;5133329;28;20471;-74
2021/11/13 08:05:15;;;;;;;8.48;5.95;;;7.10;65.90;;;;;;5133307;28;20045;-76
2021/11/13 08:07:42;;;;;;;10.32;6.47;;;7.30;65.40;;;;;;5133479;27;20026;-74
2021/11/13 08:10:08;;;;;;;12.00;6.43;;;7.30;64.60;;;;;;5133154;28;20015;-79
2021/11/13 08:12:34;;;;;;;9.20;5.82;;;7.40;64.60;;;;;;5133218;28;20518;-76
2021/11/13 08:15:00;;;;;;;9.88;6.05;;;7.40;64.40;;;;;;5133588;28;20037;-75
2021/11/13 08:17:26;;;;;;;7.18;5.07;;;7.40;64.00;;;;;;5134219;27;20110;-73
2021/11/13 08:19:51;;;;;;;8.75;5.40;;;7.50;65.00;;;;;;5139821;27;20466;-73
2021/11/13 08:22:17;;;;;;;18.42;8.55;;;7.50;65.30;;;;;;5136992;27;20079;-74
2021/11/13 08:24:43;;;;;;;22.13;11.70;;;7.60;67.70;;;;;;5137010;27;20356;-73
2021/11/13 08:27:09;;;;;;;18.48;11.55;;;7.70;69.40;;;;;;5137288;27;20467;-74
2021/11/13 08:29:35;;;;;;;26.38;12.95;;;7.80;69.40;;;;;;5137918;27;20015;-74
2021/11/13 08:32:01;;;;;;;10.13;6.35;;;8.00;69.20;;;;;;5135337;27;20047;-72
2021/11/13 08:34:26;;;;;;;10.20;6.28;;;8.40;72.70;;;;;;5135413;27;20031;-72
2021/11/13 08:36:52;;;;;;;11.77;5.75;;;8.70;71.30;;;;;;5138447;27;20391;-72
2021/11/13 08:39:18;;;;;;;7.78;4.97;;;9.00;65.80;;;;;;5136862;27;20481;-73
2021/11/13 08:41:43;;;;;;;6.50;4.35;;;9.30;65.20;;;;;;5137687;27;20473;-72
2021/11/13 08:44:10;;;;;;;10.38;4.65;;;9.50;65.10;;;;;;5137626;27;20102;-72
2021/11/13 08:46:35;;;;;;;9.48;4.68;;;9.70;61.80;;;;;;5140551;27;20031;-72
2021/11/13 08:49:03;;;;;;;11.80;4.57;;;9.80;61.50;;;;;;5141920;27;20024;-77
2021/11/13 08:51:29;;;;;;;6.03;4.05;;;9.90;58.90;;;;;;5151755;27;20095;-72
2021/11/13 08:53:55;;;;;;;7.53;4.40;;;10.00;59.10;;;;;;5156365;27;20027;-72
2021/11/13 08:56:22;;;;;;;6.88;3.92;;;10.00;58.70;;;;;;5146989;27;20015;-72
2021/11/13 08:58:49;;;;;;;8.02;4.40;;;10.20;58.20;;;;;;5152441;27;20023;-75
2021/11/13 09:01:14;;;;;;;8.70;4.97;;;9.90;55.90;;;;;;5145044;27;20023;-75
2021/11/13 09:03:44;;;;;;;6.45;4.18;;;9.70;56.60;;;;;;5136502;27;20076;-75
2021/11/13 09:06:17;;;;;;;8.50;4.53;;;9.50;57.00;;;;;;5135389;27;20391;-75
2021/11/13 09:08:45;;;;;;;5.82;3.88;;;9.30;57.90;;;;;;5134899;27;20482;-74
2021/11/13 09:11:13;;;;;;;7.13;4.57;;;9.20;58.20;;;;;;5135043;27;20031;-75
2021/11/13 09:13:39;;;;;;;9.98;4.90;;;9.00;58.80;;;;;;5134030;27;20041;-75
2021/11/13 09:16:07;;;;;;;8.32;5.10;;;9.00;59.80;;;;;;5134864;27;20508;-75
2021/11/13 09:18:34;;;;;;;6.53;4.20;;;8.90;60.10;;;;;;5117842;27;20080;-75
2021/11/13 09:21:00;;;;;;;9.70;5.03;;;8.90;61.10;;;;;;5135830;27;20019;-75
2021/11/13 09:23:29;;;;;;;7.32;4.47;;;8.90;61.60;;;;;;5134972;27;20059;-74
2021/11/13 09:25:54;;;;;;;10.23;5.20;;;8.70;61.70;;;;;;5136789;27;20074;-74
2021/11/13 09:28:21;;;;;;;9.60;5.72;;;8.70;61.90;;;;;;5134654;27;20027;-75
2021/11/13 09:30:47;;;;;;;8.52;5.13;;;8.70;62.50;;;;;;5134392;27;20019;-76
2021/11/13 09:33:13;;;;;;;7.63;4.55;;;8.60;62.10;;;;;;5135206;27;20084;-75
2021/11/13 09:35:40;;;;;;;6.60;4.78;;;8.80;62.60;;;;;;5134595;27;20121;-75
2021/11/13 09:38:07;;;;;;;9.00;4.57;;;9.10;62.70;;;;;;5135030;27;20019;-74
2021/11/13 09:40:33;;;;;;;9.77;5.00;;;9.50;60.00;;;;;;5118997;27;20031;-75
2021/11/13 09:43:03;;;;;;;7.40;4.85;;;9.60;59.30;;;;;;5135944;27;20034;-72
2021/11/13 09:45:30;;;;;;;8.98;4.28;;;9.70;59.40;;;;;;5137742;27;20126;-75
2021/11/13 09:47:59;;;;;;;9.07;4.45;;;9.60;59.40;;;;;;5138713;27;20030;-76
2021/11/13 09:50:40;;;;;;;8.00;4.60;;;9.60;59.70;;;;;;5140821;27;20019;-74
2021/11/13 09:53:06;;;;;;;8.98;5.43;;;9.70;60.30;;;;;;5147002;27;20088;-74
2021/11/13 09:55:32;;;;;;;6.90;4.70;;;9.70;60.30;;;;;;5147472;27;20027;-74
2021/11/13 09:57:58;;;;;;;12.32;5.38;;;9.90;60.40;;;;;;5128291;27;20108;-74
2021/11/13 10:00:29;;;;;;;6.80;4.78;;;10.00;59.80;;;;;;5140166;27;20035;-74
2021/11/13 10:02:55;;;;;;;8.82;4.97;;;10.10;59.40;;;;;;5136184;27;20066;-74
2021/11/13 10:05:22;;;;;;;9.20;5.35;;;10.20;59.60;;;;;;5134246;27;20169;-74
2021/11/13 10:07:48;;;;;;;8.93;5.53;;;10.20;59.80;;;;;;5134151;27;20026;-75
2021/11/13 10:10:41;;;;;;;7.65;5.10;;;10.20;59.80;;;;;;5133380;27;20046;-80
2021/11/13 10:13:28;;;;;;;9.77;5.15;;;10.30;59.90;;;;;;5132274;27;20399;-74
2021/11/13 10:15:57;;;;;;;7.53;4.57;;;10.50;59.90;;;;;;5133105;27;20027;-74
2021/11/13 10:18:32;;;;;;;7.03;4.20;;;10.70;58.70;;;;;;5133921;27;20027;-75
2021/11/13 10:21:00;;;;;;;8.57;5.30;;;10.90;58.60;;;;;;5134820;27;20383;-77
2021/11/13 10:23:26;;;;;;;7.45;4.60;;;11.00;57.80;;;;;;5132590;27;20028;-74
2021/11/13 10:26:14;;;;;;;9.30;4.53;;;11.00;57.90;;;;;;5133430;27;20041;-75
2021/11/13 10:28:44;;;;;;;8.50;4.38;;;11.00;57.40;;;;;;5131603;27;20023;-75
2021/11/13 10:31:16;;;;;;;5.88;4.20;;;11.10;57.70;;;;;;5132685;27;20388;-75
2021/11/13 10:33:43;;;;;;;8.48;4.28;;;11.30;57.50;;;;;;5115614;27;20023;-75
2021/11/13 10:36:09;;;;;;;6.55;4.32;;;11.60;56.80;;;;;;5133575;27;20439;-75
2021/11/13 10:38:38;;;;;;;7.05;3.78;;;11.60;56.40;;;;;;5133164;27;20027;-78
2021/11/13 10:41:08;;;;;;;6.10;3.70;;;11.70;56.30;;;;;;5135899;27;20027;-80
2021/11/13 10:43:45;;;;;;;6.47;4.57;;;11.60;56.70;;;;;;5141926;27;20026;-79
2021/11/13 10:46:20;;;;;;;9.43;5.57;;;11.60;57.60;;;;;;5125622;27;20470;-80
2021/11/13 10:48:50;;;;;;;8.30;4.30;;;11.60;58.00;;;;;;5155251;27;20079;-76
2021/11/13 10:51:29;;;;;;;10.10;3.80;;;11.60;58.50;;;;;;5139194;27;20087;-79
2021/11/13 10:53:56;;;;;;;6.22;3.80;;;11.60;58.70;;;;;;5134606;27;20110;-79
2021/11/13 10:56:24;;;;;;;7.60;3.45;;;11.60;58.60;;;;;;5132270;27;20027;-74
2021/11/13 10:58:49;;;;;;;7.82;3.83;;;11.50;58.50;;;;;;5133803;27;20042;-74
2021/11/13 11:01:39;;;;;;;9.90;4.50;;;11.50;59.00;;;;;;5132360;27;20027;-74
2021/11/13 11:04:12;;;;;;;6.90;4.78;;;11.50;60.10;;;;;;5133747;27;20098;-74
2021/11/13 11:06:41;;;;;;;8.50;4.90;;;11.40;61.30;;;;;;5132043;27;20031;-75
2021/11/13 11:09:28;;;;;;;6.43;4.25;;;11.30;61.40;;;;;;5132192;27;20060;-75
2021/11/13 11:12:11;;;;;;;8.38;4.70;;;11.40;61.30;;;;;;5133488;27;20027;-77
2021/11/13 11:14:40;;;;;;;9.25;4.53;;;11.40;61.50;;;;;;5132033;27;20015;-75
2021/11/13 11:17:08;;;;;;;8.98;4.95;;;11.40;62.50;;;;;;5133527;27;20498;-75
2021/11/13 11:19:36;;;;;;;6.80;4.80;;;11.50;62.30;;;;;;5132237;28;20118;-75
2021/11/13 11:22:08;;;;;;;5.65;3.90;;;11.70;62.40;;;;;;5131802;28;20031;-75
2021/11/13 11:24:53;;;;;;;7.40;3.17;;;11.90;61.60;;;;;;5131839;28;20023;-75
2021/11/13 11:27:23;;;;;;;8.07;2.83;;;12.10;61.70;;;;;;5133642;28;20108;-75
2021/11/13 11:30:03;;;;;;;4.30;2.40;;;12.10;63.30;;;;;;5131827;28;20065;-74
2021/11/13 11:32:48;;;;;;;5.38;2.35;;;12.10;64.10;;;;;;5134076;28;20559;-74
2021/11/13 11:35:19;;;;;;;7.40;2.97;;;12.00;64.40;;;;;;5132212;28;20114;-75
2021/11/13 11:38:14;;;;;;;7.13;3.63;;;11.90;65.30;;;;;;5134477;28;20043;-74
2021/11/13 11:40:47;;;;;;;5.07;2.92;;;11.80;65.40;;;;;;5135778;28;20475;-79
2021/11/13 11:43:15;;;;;;;6.90;3.55;;;11.70;66.10;;;;;;5135187;28;20487;-79
2021/11/13 11:45:44;;;;;;;8.05;3.75;;;11.70;66.00;;;;;;5134235;28;20058;-82
2021/11/13 11:48:13;;;;;;;3.85;2.35;;;11.60;66.60;;;;;;5136085;28;20117;-81
2021/11/13 11:50:40;;;;;;;2.42;1.83;;;11.60;66.60;;;;;;5133280;27;20038;-75
2021/11/13 11:53:11;;;;;;;4.28;2.53;;;11.50;67.00;;;;;;5118762;27;20037;-74
2021/11/13 11:55:40;;;;;;;5.13;2.90;;;11.50;67.20;;;;;;5136533;27;20056;-73
2021/11/13 11:58:11;;;;;;;6.70;2.88;;;11.50;67.30;;;;;;5136811;27;20455;-74
2021/11/13 12:00:39;;;;;;;6.00;3.03;;;11.40;68.10;;;;;;5135425;27;20035;-75
2021/11/13 12:03:05;;;;;;;4.05;2.67;;;11.40;67.70;;;;;;5137353;27;20027;-74
2021/11/13 12:05:37;;;;;;;5.68;2.70;;;11.50;67.80;;;;;;5135827;27;20380;-75
2021/11/13 12:08:21;;;;;;;13.75;3.28;;;11.40;67.60;;;;;;5135021;27;20031;-74
2021/11/13 12:10:48;;;;;;;3.95;2.45;;;11.40;68.20;;;;;;5118815;27;20031;-75
2021/11/13 12:13:17;;;;;;;6.35;2.55;;;11.40;68.00;;;;;;5135694;27;20030;-75
2021/11/13 12:16:00;;;;;;;4.00;2.10;;;11.50;68.30;;;;;;5135250;27;20023;-73
2021/11/13 12:18:35;;;;;;;5.03;2.22;;;11.40;68.90;;;;;;5135364;27;20023;-73
2021/11/13 12:21:04;;;;;;;3.30;1.80;;;11.30;69.20;;;;;;5135034;27;20061;-74
2021/11/13 12:23:31;;;;;;;4.30;1.92;;;11.30;69.40;;;;;;5135476;27;20063;-74
2021/11/13 12:26:07;;;;;;;3.00;1.90;;;11.40;69.40;;;;;;5136822;27;20035;-74
2021/11/13 12:28:35;;;;;;;;;;;11.30;69.70;;;;;;5136975;27;20026;-75
2021/11/13 12:31:08;;;;;;;3.28;1.85;;;11.30;70.00;;;;;;5135003;27;19907;-74
2021/11/13 12:33:34;;;;;;;2.55;1.70;;;11.30;69.90;;;;;;5135238;27;20095;-75
2021/11/13 12:36:05;;;;;;;3.92;1.60;;;11.30;70.30;;;;;;5135352;27;20467;-76
2021/11/13 12:38:30;;;;;;;4.07;1.77;;;11.30;70.40;;;;;;5135103;27;20149;-75
2021/11/13 12:41:25;;;;;;;2.72;1.75;;;11.20;70.60;;;;;;5135072;27;20479;-74
2021/11/13 12:43:55;;;;;;;3.47;2.00;;;11.20;71.00;;;;;;5135144;27;20030;-75
2021/11/13 12:46:37;;;;;;;2.33;1.75;;;11.10;71.50;;;;;;5134448;27;20043;-75
2021/11/13 12:51:56;;;;;;;3.83;2.22;;;11.10;71.80;;;;;;5135774;27;20494;-75
2021/11/13 12:54:32;;;;;;;3.65;1.85;;;11.10;72.00;;;;;;5134901;27;20483;-75
2021/11/13 12:57:23;;;;;;;3.28;2.45;;;11.20;72.00;;;;;;5135191;27;20061;-74
2021/11/13 13:00:11;;;;;;;3.92;1.88;;;11.10;72.30;;;;;;5136160;27;20067;-76